Time;durP1;ratioP1;P1;durP2;ratioP2;P2;SDS_P1;SDS_P2;PMS_P1;PMS_P2;Temp;Humidity;BMP_temperature;BMP_pressure;BME280_temperature;BME280_humidity;BME280_pressure;Samples;Min_cycle;Max_cycle;Signal;HPM_P1;HPM_P2
2023/09/12 00:01:32;;;;;;;39.35;19.08;;;;;;;19.14;100.00;101309.31;5194292;28;20117;-79
2023/09/12 00:04:03;;;;;;;30.63;16.63;;;;;;;19.16;100.00;101312.63;5184343;28;20373;-79
2023/09/12 00:06:33;;;;;;;37.22;18.30;;;;;;;19.12;100.00;101306.78;5197491;28;20022;-77
2023/09/12 00:09:10;;;;;;;34.85;16.98;;;;;;;19.07;100.00;101311.19;5199824;28;20021;-78
2023/09/12 00:11:41;;;;;;;28.60;16.27;;;;;;;18.99;100.00;101298.66;5183815;28;20026;-78
2023/09/12 00:14:16;;;;;;;27.88;17.05;;;;;;;18.95;100.00;101297.41;5187718;28;20502;-79
2023/09/12 00:16:46;;;;;;;27.42;15.90;;;;;;;18.94;100.00;101292.19;5196178;28;20030;-78
2023/09/12 00:19:17;;;;;;;102.97;10.93;;;;;;;18.85;100.00;101300.53;5186482;28;20022;-78
2023/09/12 00:21:47;;;;;;;50.40;11.52;;;;;;;18.74;100.00;101301.16;5194078;28;20026;-79
2023/09/12 00:24:18;;;;;;;13.35;7.35;;;;;;;18.66;100.00;101301.34;5189548;28;20476;-77
2023/09/12 00:26:48;;;;;;;15.52;9.50;;;;;;;18.59;100.00;101309.50;5185701;28;20116;-79
2023/09/12 00:29:19;;;;;;;27.65;9.75;;;;;;;18.53;100.00;101307.63;5189196;28;20072;-79
2023/09/12 00:31:49;;;;;;;21.10;11.02;;;;;;;18.49;100.00;101309.06;5196279;28;20666;-78
2023/09/12 00:34:20;;;;;;;25.70;13.23;;;;;;;18.45;100.00;101312.41;5195929;28;20086;-79
2023/09/12 00:36:50;;;;;;;22.92;11.30;;;;;;;18.35;100.00;101320.94;5195446;28;20121;-78
2023/09/12 00:39:21;;;;;;;18.50;10.57;;;;;;;18.31;100.00;101311.53;5196109;28;20018;-78
2023/09/12 00:41:51;;;;;;;36.95;17.20;;;;;;;18.31;100.00;101303.38;5189500;28;20056;-78
2023/09/12 00:44:22;;;;;;;33.63;17.33;;;;;;;18.35;100.00;101300.06;5188699;28;20025;-78
2023/09/12 00:46:53;;;;;;;30.35;16.80;;;;;;;18.45;100.00;101301.53;5189958;28;20041;-78
2023/09/12 00:49:24;;;;;;;31.67;16.40;;;;;;;18.54;100.00;101297.59;5194132;28;20013;-79
2023/09/12 00:51:56;;;;;;;31.88;17.30;;;;;;;18.62;100.00;101302.78;5189426;28;20023;-79
2023/09/12 00:54:27;;;;;;;29.27;15.35;;;;;;;18.65;100.00;101294.22;5195090;28;20029;-78
2023/09/12 00:56:57;;;;;;;30.38;16.45;;;;;;;18.68;100.00;101295.72;5198833;28;20025;-78
2023/09/12 00:59:28;;;;;;;31.10;16.55;;;;;;;18.69;100.00;101292.81;5200561;28;20026;-79
2023/09/12 01:01:59;;;;;;;31.20;17.27;;;;;;;18.74;100.00;101298.47;5193859;28;20021;-79
2023/09/12 01:04:30;;;;;;;33.40;18.33;;;;;;;18.74;100.00;101290.31;5193092;28;20026;-79
2023/09/12 01:07:03;;;;;;;42.97;19.45;;;;;;;18.72;100.00;101296.97;5194035;28;20040;-79
2023/09/12 01:09:34;;;;;;;39.15;18.33;;;;;;;18.73;100.00;101295.97;5190030;28;20018;-79
2023/09/12 01:12:05;;;;;;;34.33;17.70;;;;;;;18.72;100.00;101291.53;5191921;28;20543;-78
2023/09/12 01:14:35;;;;;;;29.50;15.20;;;;;;;18.72;100.00;101299.69;5196470;28;20030;-77
2023/09/12 01:17:06;;;;;;;33.47;18.17;;;;;;;18.74;100.00;101290.31;5193855;28;20018;-78
2023/09/12 01:19:37;;;;;;;31.48;15.68;;;;;;;18.71;100.00;101290.72;5196783;28;20030;-78
2023/09/12 01:22:15;;;;;;;31.77;17.20;;;;;;;18.67;100.00;101285.88;5190943;28;20029;-77
2023/09/12 01:25:07;;;;;;;26.58;15.13;;;;;;;18.63;100.00;101280.03;5199446;28;20040;-78
2023/09/12 01:27:41;;;;;;;31.98;15.25;;;;;;;18.61;100.00;101279.38;5189432;28;20098;-78
2023/09/12 01:30:14;;;;;;;39.60;16.80;;;;;;;18.62;100.00;101265.63;5190515;28;20029;-78
2023/09/12 01:32:45;;;;;;;35.50;18.02;;;;;;;18.59;100.00;101282.31;5199557;28;20017;-78
2023/09/12 01:35:16;;;;;;;35.67;17.60;;;;;;;18.54;100.00;101292.16;5191397;28;20077;-78
2023/09/12 01:37:46;;;;;;;27.67;14.63;;;;;;;18.43;100.00;101298.19;5192024;28;20075;-79
2023/09/12 01:40:17;;;;;;;29.08;15.18;;;;;;;18.32;100.00;101297.78;5184322;28;20026;-77
2023/09/12 01:42:49;;;;;;;29.73;15.43;;;;;;;18.26;100.00;101292.31;5193706;28;20022;-79
2023/09/12 01:45:20;;;;;;;29.75;14.95;;;;;;;18.19;100.00;101289.59;5195438;28;20022;-77
2023/09/12 01:47:51;;;;;;;29.75;13.35;;;;;;;18.16;100.00;101295.41;5197742;28;20041;-79
2023/09/12 01:50:22;;;;;;;21.73;11.02;;;;;;;18.13;100.00;101293.13;5191325;28;20024;-78
2023/09/12 01:52:53;;;;;;;15.90;9.05;;;;;;;18.09;100.00;101286.44;5198488;28;20030;-78
2023/09/12 01:55:25;;;;;;;17.20;10.60;;;;;;;18.03;100.00;101285.38;5191203;28;20022;-78
2023/09/12 01:58:00;;;;;;;22.65;11.80;;;;;;;18.03;100.00;101284.53;5195281;28;20021;-77
2023/09/12 02:00:31;;;;;;;23.25;12.25;;;;;;;18.04;100.00;101280.78;5194020;28;20104;-78
2023/09/12 02:03:07;;;;;;;32.22;15.50;;;;;;;18.03;100.00;101279.94;5192420;28;20027;-79
2023/09/12 02:05:40;;;;;;;26.70;14.57;;;;;;;18.01;100.00;101275.75;5188342;28;20452;-78
2023/09/12 02:08:15;;;;;;;29.80;15.75;;;;;;;17.99;100.00;101273.25;5201808;28;20013;-78
2023/09/12 02:10:46;;;;;;;31.58;15.80;;;;;;;17.95;100.00;101263.84;5192548;28;20037;-79
2023/09/12 02:13:16;;;;;;;38.08;17.98;;;;;;;17.96;100.00;101268.22;5197120;28;20129;-78
2023/09/12 02:15:49;;;;;;;32.10;17.15;;;;;;;17.98;100.00;101268.03;5193199;28;20060;-78
2023/09/12 02:18:28;;;;;;;38.70;15.25;;;;;;;17.97;100.00;101269.91;5195642;28;20017;-78
2023/09/12 02:21:02;;;;;;;33.00;8.77;;;;;;;17.85;100.00;101280.50;5186044;28;20026;-78
2023/09/12 02:23:32;;;;;;;23.67;12.15;;;;;;;17.78;100.00;101276.94;5196663;28;20035;-78
2023/09/12 02:26:03;;;;;;;25.35;13.63;;;;;;;17.79;100.00;101269.63;5190884;28;20061;-78
2023/09/12 02:28:37;;;;;;;33.50;15.85;;;;;;;17.80;100.00;101274.00;5189468;28;20064;-78
2023/09/12 02:31:11;;;;;;;28.65;15.10;;;;;;;17.77;100.00;101271.69;5195394;28;20029;-78
2023/09/12 02:33:42;;;;;;;25.40;13.40;;;;;;;17.74;100.00;101267.53;5199541;28;20685;-78
2023/09/12 02:36:12;;;;;;;32.40;16.17;;;;;;;17.76;100.00;101264.59;5200517;28;20017;-79
2023/09/12 02:38:43;;;;;;;23.00;11.88;;;;;;;17.77;100.00;101266.28;5199684;28;20108;-78
2023/09/12 02:41:13;;;;;;;23.98;12.82;;;;;;;17.71;100.00;101261.63;5184813;28;20052;-78
2023/09/12 02:43:44;;;;;;;24.33;13.73;;;;;;;17.67;100.00;101257.63;5192346;28;20071;-77
2023/09/12 02:46:14;;;;;;;25.13;12.07;;;;;;;17.67;100.00;101253.09;5201157;28;20017;-79
2023/09/12 02:48:45;;;;;;;31.98;15.98;;;;;;;17.72;100.00;101252.44;5198946;28;20022;-78
2023/09/12 02:51:15;;;;;;;35.65;16.55;;;;;;;17.74;100.00;101262.09;5188247;28;20574;-79
2023/09/12 02:53:46;;;;;;;31.35;15.63;;;;;;;17.73;100.00;101265.03;5188389;28;20096;-78
2023/09/12 02:56:16;;;;;;;28.65;14.95;;;;;;;17.70;100.00;101268.94;5199918;28;20021;-78
2023/09/12 02:58:47;;;;;;;28.20;12.40;;;;;;;17.69;100.00;101282.72;5189075;28;20726;-79
2023/09/12 03:01:19;;;;;;;22.63;11.35;;;;;;;17.63;100.00;101280.81;5187984;28;20033;-78
2023/09/12 03:03:50;;;;;;;27.40;13.43;;;;;;;17.61;100.00;101279.13;5190539;28;20021;-79
2023/09/12 03:06:20;;;;;;;29.35;14.70;;;;;;;17.64;100.00;101277.06;5200291;28;20029;-79
2023/09/12 03:08:51;;;;;;;22.60;12.48;;;;;;;17.64;100.00;101282.47;5191253;28;20018;-78
2023/09/12 03:11:21;;;;;;;20.58;11.57;;;;;;;17.62;100.00;101285.41;5189746;28;20018;-79
2023/09/12 03:13:52;;;;;;;20.92;10.60;;;;;;;17.59;100.00;101291.22;5189841;28;20025;-78
2023/09/12 03:16:24;;;;;;;23.02;12.38;;;;;;;17.61;100.00;101283.72;5178673;28;20076;-78
2023/09/12 03:18:54;;;;;;;25.05;12.32;;;;;;;17.65;100.00;101286.88;5190821;28;20056;-78
2023/09/12 03:21:25;;;;;;;28.60;14.70;;;;;;;17.67;100.00;101282.06;5187966;28;20061;-78
2023/09/12 03:23:55;;;;;;;30.58;15.52;;;;;;;17.74;100.00;101291.94;5191945;28;20060;-79
2023/09/12 03:26:26;;;;;;;28.05;15.45;;;;;;;17.82;100.00;101293.63;5197346;28;20025;-78
2023/09/12 03:28:57;;;;;;;28.63;16.15;;;;;;;17.89;100.00;101296.38;5192821;28;20056;-79
2023/09/12 03:31:28;;;;;;;36.70;16.58;;;;;;;17.91;100.00;101299.72;5186375;28;20026;-79
2023/09/12 03:33:59;;;;;;;33.38;17.90;;;;;;;17.97;100.00;101293.47;5191923;28;20018;-79
2023/09/12 03:36:29;;;;;;;34.95;16.90;;;;;;;18.00;100.00;101282.22;5195627;28;20031;-79
2023/09/12 03:39:00;;;;;;;35.90;17.88;;;;;;;18.03;100.00;101288.09;5190847;28;20029;-78
2023/09/12 03:41:31;;;;;;;28.23;15.32;;;;;;;18.00;100.00;101283.06;5194594;28;20029;-78
2023/09/12 03:44:02;;;;;;;24.15;14.10;;;;;;;17.98;100.00;101287.88;5191542;28;20391;-79
2023/09/12 03:46:32;;;;;;;31.75;14.25;;;;;;;18.00;100.00;101290.38;5193265;28;20097;-78
2023/09/12 03:49:03;;;;;;;38.17;17.38;;;;;;;18.01;100.00;101284.72;5198318;28;20083;-78
2023/09/12 03:51:34;;;;;;;33.75;16.80;;;;;;;18.00;100.00;101288.47;5198138;28;20112;-79
2023/09/12 03:54:05;;;;;;;29.45;16.05;;;;;;;18.02;100.00;101282.84;5192913;28;20483;-79
2023/09/12 03:56:35;;;;;;;35.63;17.77;;;;;;;18.05;100.00;101286.00;5187744;28;20104;-78
2023/09/12 03:59:06;;;;;;;32.53;17.02;;;;;;;18.13;100.00;101286.88;5189515;28;20029;-79
2023/09/12 04:01:37;;;;;;;35.83;16.05;;;;;;;18.14;100.00;101280.38;5193029;28;20044;-78
2023/09/12 04:04:08;;;;;;;27.58;13.68;;;;;;;18.12;100.00;101275.13;5197109;28;20017;-79
2023/09/12 04:06:38;;;;;;;27.63;14.13;;;;;;;18.11;100.00;101273.47;5198644;28;20029;-79
2023/09/12 04:09:09;;;;;;;26.50;13.75;;;;;;;18.13;100.00;101268.69;5197090;28;20428;-78
2023/09/12 04:11:39;;;;;;;29.38;15.80;;;;;;;18.12;100.00;101256.13;5196263;28;20021;-79
2023/09/12 04:14:10;;;;;;;29.92;17.05;;;;;;;18.14;100.00;101256.78;5200210;28;20545;-79
2023/09/12 04:16:40;;;;;;;30.40;15.77;;;;;;;18.19;100.00;101250.72;5200334;28;20072;-79
2023/09/12 04:19:11;;;;;;;32.13;16.50;;;;;;;18.20;100.00;101245.09;5191604;28;20024;-78
2023/09/12 04:21:41;;;;;;;29.05;15.57;;;;;;;18.21;100.00;101246.75;5200262;28;20025;-78
2023/09/12 04:24:12;;;;;;;35.20;18.58;;;;;;;18.26;100.00;101235.28;5201079;28;20030;-79
2023/09/12 04:26:43;;;;;;;43.00;19.08;;;;;;;18.30;100.00;101234.66;5196810;28;20034;-79
2023/09/12 04:29:14;;;;;;;40.75;18.08;;;;;;;18.33;100.00;101222.56;5198481;28;20018;-79
2023/09/12 04:31:44;;;;;;;38.03;19.60;;;;;;;18.37;100.00;101219.22;5195116;28;20034;-79
2023/09/12 04:34:15;;;;;;;41.63;17.65;;;;;;;18.41;100.00;101224.22;5186566;28;20471;-79
2023/09/12 04:36:45;;;;;;;42.72;18.73;;;;;;;18.40;100.00;101220.66;5202069;28;20109;-77
2023/09/12 04:39:16;;;;;;;33.95;17.50;;;;;;;18.31;100.00;101228.16;5199954;28;20459;-78
2023/09/12 04:41:46;;;;;;;39.65;20.00;;;;;;;18.29;100.00;101216.69;5201701;28;20017;-78
2023/09/12 04:44:17;;;;;;;48.10;20.70;;;;;;;18.30;100.00;101207.50;5203092;28;20040;-78
2023/09/12 04:46:48;;;;;;;51.42;22.27;;;;;;;18.34;100.00;101210.63;5200162;28;20022;-77
2023/09/12 04:49:18;;;;;;;54.75;22.40;;;;;;;18.41;100.00;101210.63;5198970;28;20447;-78
2023/09/12 04:51:49;;;;;;;61.45;23.95;;;;;;;18.42;100.00;101218.56;5205199;28;20096;-79
2023/09/12 04:54:19;;;;;;;48.60;21.63;;;;;;;18.42;100.00;101218.56;5183676;28;20435;-78
2023/09/12 04:56:50;;;;;;;52.08;22.58;;;;;;;18.42;100.00;101220.44;5195522;28;20412;-79
2023/09/12 04:59:20;;;;;;;47.10;22.65;;;;;;;18.38;100.00;101223.59;5199963;28;20083;-79
2023/09/12 05:01:51;;;;;;;52.75;23.40;;;;;;;18.37;100.00;101235.50;5200565;28;20025;-79
2023/09/12 05:04:21;;;;;;;64.90;24.70;;;;;;;18.35;100.00;101244.91;5194019;28;20033;-78
2023/09/12 05:06:53;;;;;;;56.20;23.75;;;;;;;18.35;100.00;101236.75;5195956;28;20026;-77
2023/09/12 05:09:23;;;;;;;57.53;24.15;;;;;;;18.42;100.00;101236.75;5203314;28;20696;-79
2023/09/12 05:11:54;;;;;;;63.85;25.83;;;;;;;18.44;100.00;101240.09;5183726;28;20029;-78
2023/09/12 05:14:24;;;;;;;49.03;22.50;;;;;;;18.44;100.00;101237.38;5194043;28;20026;-78
2023/09/12 05:16:56;;;;;;;52.78;22.30;;;;;;;18.42;100.00;101243.00;5202621;28;20032;-78
2023/09/12 05:19:26;;;;;;;50.03;20.92;;;;;;;18.42;100.00;101225.88;5207033;28;20390;-78
2023/09/12 05:21:57;;;;;;;47.65;21.08;;;;;;;18.42;100.00;101234.03;5194667;28;20028;-78
2023/09/12 05:24:27;;;;;;;46.08;19.15;;;;;;;18.42;100.00;101228.59;5196146;28;20116;-78
2023/09/12 05:26:58;;;;;;;46.65;20.52;;;;;;;18.42;100.00;101234.84;5192416;28;20399;-78
2023/09/12 05:29:28;;;;;;;47.55;22.00;;;;;;;18.41;100.00;101243.22;5169972;28;20029;-77
2023/09/12 05:31:59;;;;;;;43.83;20.63;;;;;;;18.41;100.00;101246.78;5190116;28;20026;-78
2023/09/12 05:34:29;;;;;;;43.95;21.25;;;;;;;18.37;100.00;101246.38;5194767;28;20026;-78
2023/09/12 05:37:00;;;;;;;47.78;22.23;;;;;;;18.36;100.00;101244.69;5200561;28;20036;-78
2023/09/12 05:39:30;;;;;;;52.97;22.80;;;;;;;18.40;100.00;101247.81;5194179;28;20084;-77
2023/09/12 05:42:01;;;;;;;43.42;20.67;;;;;;;18.40;100.00;101260.56;5191808;28;20112;-77
2023/09/12 05:44:32;;;;;;;46.00;21.45;;;;;;;18.36;100.00;101258.25;5198624;28;20517;-78
2023/09/12 05:47:03;;;;;;;51.08;20.33;;;;;;;18.35;100.00;101266.63;5195666;28;20036;-77
2023/09/12 05:49:34;;;;;;;35.05;17.13;;;;;;;18.32;100.00;101264.31;5194824;28;20025;-78
2023/09/12 05:52:04;;;;;;;45.10;22.13;;;;;;;18.31;100.00;101262.66;5198515;28;20491;-77
2023/09/12 05:54:35;;;;;;;42.03;19.83;;;;;;;18.30;100.00;101267.25;5195503;28;20026;-77
2023/09/12 05:57:05;;;;;;;52.50;21.40;;;;;;;18.32;100.00;101276.03;5198594;28;20032;-78
2023/09/12 05:59:37;;;;;;;48.33;21.85;;;;;;;18.35;100.00;101282.91;5194230;28;20049;-78
2023/09/12 06:02:09;;;;;;;52.55;22.92;;;;;;;18.44;100.00;101284.41;5195760;28;20483;-78
2023/09/12 06:04:40;;;;;;;84.70;19.90;;;;;;;18.46;100.00;101282.31;5200253;28;20072;-79
2023/09/12 06:07:10;;;;;;;47.50;22.63;;;;;;;18.43;100.00;101285.44;5199264;28;20065;-78
2023/09/12 06:09:41;;;;;;;44.75;16.73;;;;;;;18.44;100.00;101283.56;5195700;28;20053;-78
2023/09/12 06:12:11;;;;;;;34.53;16.67;;;;;;;18.41;100.00;101297.56;5197897;28;20419;-78
2023/09/12 06:14:42;;;;;;;39.92;18.33;;;;;;;18.46;100.00;101305.91;5195344;28;20040;-78
2023/09/12 06:17:12;;;;;;;47.50;21.65;;;;;;;18.53;100.00;101298.63;5199994;28;20183;-79
2023/09/12 06:19:43;;;;;;;40.60;20.08;;;;;;;18.69;100.00;101281.94;5187835;28;20022;-79
2023/09/12 06:22:13;;;;;;;52.00;23.23;;;;;;;18.92;100.00;101283.38;5200026;28;20479;-78
2023/09/12 06:24:44;;;;;;;45.85;20.60;;;;;;;19.17;100.00;101280.81;5187630;28;20206;-79
2023/09/12 06:27:18;;;;;;;44.80;20.08;;;;;;;19.40;100.00;101275.75;5198067;28;20018;-78
2023/09/12 06:29:49;;;;;;;44.47;21.38;;;;;;;19.73;100.00;101280.25;5195424;28;20022;-79
2023/09/12 06:32:20;;;;;;;47.22;22.17;;;;;;;20.05;100.00;101282.00;5191301;28;20024;-79
2023/09/12 06:34:50;;;;;;;39.00;20.42;;;;;;;20.33;100.00;101276.16;5201308;28;20081;-78
2023/09/12 06:37:21;;;;;;;53.92;22.58;;;;;;;20.56;100.00;101285.66;5195022;28;20104;-78
2023/09/12 06:39:51;;;;;;;45.13;21.27;;;;;;;20.88;100.00;101292.75;5198645;28;20057;-78
2023/09/12 06:42:22;;;;;;;37.88;19.98;;;;;;;21.19;100.00;101283.63;5191926;28;20395;-78
2023/09/12 06:44:52;;;;;;;45.53;20.42;;;;;;;21.40;100.00;101282.38;5198072;28;20033;-78
2023/09/12 06:47:23;;;;;;;42.58;21.50;;;;;;;21.40;100.00;101285.09;5200177;28;20505;-79
2023/09/12 06:49:53;;;;;;;46.92;23.92;;;;;;;21.54;100.00;101287.69;5200298;28;20021;-80
2023/09/12 06:52:24;;;;;;;44.33;23.10;;;;;;;21.72;100.00;101282.19;5198323;28;20465;-78
2023/09/12 06:54:54;;;;;;;45.05;24.05;;;;;;;21.96;100.00;101285.88;5194278;28;20025;-78
2023/09/12 06:57:25;;;;;;;48.80;24.40;;;;;;;22.26;100.00;101296.00;5197262;28;20025;-79
2023/09/12 06:59:55;;;;;;;44.35;23.13;;;;;;;22.52;100.00;101281.09;5196452;28;20104;-79
2023/09/12 07:02:27;;;;;;;38.08;20.17;;;;;;;22.94;100.00;101284.59;5194311;28;20041;-79
2023/09/12 07:04:58;;;;;;;48.58;24.08;;;;;;;23.13;100.00;101286.16;5197164;28;20044;-77
2023/09/12 07:07:29;;;;;;;47.10;24.88;;;;;;;23.41;100.00;101288.16;5194202;28;20021;-78
2023/09/12 07:10:00;;;;;;;46.83;25.50;;;;;;;23.43;100.00;101288.72;5197929;28;20024;-79
2023/09/12 07:12:32;;;;;;;52.65;28.52;;;;;;;23.46;100.00;101288.28;5193083;28;20494;-77
2023/09/12 07:15:03;;;;;;;43.05;22.35;;;;;;;23.75;100.00;101291.09;5201323;28;20024;-79
2023/09/12 07:17:33;;;;;;;50.78;26.15;;;;;;;23.68;100.00;101302.16;5194431;28;20034;-79
2023/09/12 07:20:09;;;;;;;57.88;28.90;;;;;;;23.79;100.00;101300.47;5192301;28;20025;-79
2023/09/12 07:22:41;;;;;;;56.25;29.15;;;;;;;23.99;100.00;101300.03;5195153;28;20030;-79
2023/09/12 07:25:13;;;;;;;59.28;29.45;;;;;;;24.07;100.00;101302.41;5193212;28;20032;-79
2023/09/12 07:27:44;;;;;;;58.78;30.58;;;;;;;24.27;100.00;101302.78;5198690;28;20026;-79
2023/09/12 07:30:14;;;;;;;50.97;28.83;;;;;;;24.59;100.00;101309.66;5200764;28;20016;-79
2023/09/12 07:32:45;;;;;;;58.42;31.25;;;;;;;24.78;100.00;101319.31;5193987;28;20080;-77
2023/09/12 07:35:15;;;;;;;58.55;30.02;;;;;;;24.73;100.00;101321.97;5193860;28;20466;-80
2023/09/12 07:37:46;;;;;;;57.97;28.88;;;;;;;24.48;100.00;101317.72;5198346;28;20018;-84
2023/09/12 07:40:17;;;;;;;56.75;29.98;;;;;;;24.20;100.00;101325.94;5197857;28;20480;-83
2023/09/12 07:42:47;;;;;;;59.72;29.95;;;;;;;23.67;100.00;101325.16;5193203;28;20022;-80
2023/09/12 07:45:18;;;;;;;64.47;31.55;;;;;;;23.24;100.00;101314.59;5197303;28;20034;-80
2023/09/12 07:47:49;;;;;;;65.60;32.05;;;;;;;22.99;100.00;101321.16;5200169;28;20070;-79
2023/09/12 07:50:19;;;;;;;64.55;31.65;;;;;;;22.83;100.00;101319.06;5201684;28;20112;-79
2023/09/12 07:52:49;;;;;;;69.13;31.02;;;;;;;22.78;100.00;101329.88;5196169;28;20021;-79
2023/09/12 07:55:20;;;;;;;69.22;33.53;;;;;;;22.77;100.00;101319.19;5197129;28;20022;-80
2023/09/12 07:57:50;;;;;;;63.17;30.90;;;;;;;23.08;100.00;101329.00;5197994;28;20025;-80
2023/09/12 08:00:21;;;;;;;66.32;31.67;;;;;;;23.53;100.00;101329.19;5193020;28;20129;-80
2023/09/12 08:02:51;;;;;;;57.63;30.27;;;;;;;23.80;100.00;101321.31;5196680;28;20037;-80
2023/09/12 08:05:22;;;;;;;63.83;29.70;;;;;;;24.19;100.00;101327.84;5203478;28;20013;-80
2023/09/12 08:07:53;;;;;;;57.90;28.83;;;;;;;24.76;100.00;101329.72;5181280;28;20535;-79
2023/09/12 08:10:23;;;;;;;55.25;29.52;;;;;;;25.45;100.00;101330.28;5193961;28;20018;-80
2023/09/12 08:12:54;;;;;;;51.42;26.55;;;;;;;25.87;100.00;101323.41;5199752;28;20041;-79
2023/09/12 08:15:24;;;;;;;51.50;27.50;;;;;;;25.66;100.00;101331.38;5197375;28;20026;-80
2023/09/12 08:17:55;;;;;;;50.72;27.45;;;;;;;25.43;100.00;101326.09;5202175;28;20041;-80
2023/09/12 08:20:25;;;;;;;49.42;26.48;;;;;;;25.48;100.00;101329.75;5194378;28;20041;-80
2023/09/12 08:22:56;;;;;;;52.50;25.20;;;;;;;25.60;100.00;101328.78;5198924;28;20113;-80
2023/09/12 08:25:27;;;;;;;46.70;25.90;;;;;;;25.43;100.00;101329.66;5195252;28;20032;-79
2023/09/12 08:27:57;;;;;;;48.65;25.60;;;;;;;25.28;100.00;101332.19;5199413;28;20029;-79
2023/09/12 08:30:33;;;;;;;53.20;26.60;;;;;;;25.58;100.00;101337.28;5200399;28;20014;-80
2023/09/12 08:33:05;;;;;;;48.72;22.92;;;;;;;25.94;100.00;101330.34;5198403;28;20037;-79
2023/09/12 08:35:36;;;;;;;50.60;25.02;;;;;;;26.35;100.00;101326.13;5198464;28;20030;-80
2023/09/12 08:38:06;;;;;;;49.55;25.13;;;;;;;26.89;100.00;101325.25;5200279;28;20087;-80
2023/09/12 08:40:37;;;;;;;40.53;23.05;;;;;;;26.79;100.00;101326.00;5200773;28;20117;-80
2023/09/12 08:43:08;;;;;;;46.92;24.48;;;;;;;27.16;100.00;101319.72;5199504;28;20028;-80
2023/09/12 08:45:38;;;;;;;52.10;27.25;;;;;;;27.58;100.00;101313.31;5198194;28;20026;-80
2023/09/12 08:48:10;;;;;;;47.42;24.75;;;;;;;27.86;100.00;101314.81;5196723;28;20037;-80
2023/09/12 08:50:41;;;;;;;47.88;25.08;;;;;;;28.07;100.00;101313.81;5203100;28;20025;-80
2023/09/12 08:53:12;;;;;;;53.05;26.90;;;;;;;28.13;100.00;101312.72;5201762;28;20022;-81
2023/09/12 08:55:43;;;;;;;53.08;26.15;;;;;;;28.04;100.00;101311.59;5200444;28;20227;-81
2023/09/12 08:58:13;;;;;;;57.00;26.15;;;;;;;28.33;100.00;101317.47;5202507;28;20075;-81
2023/09/12 09:00:44;;;;;;;47.17;25.52;;;;;;;28.24;100.00;101315.50;5197438;28;20044;-81
2023/09/12 09:03:16;;;;;;;46.03;25.38;;;;;;;28.29;100.00;101316.34;5203154;28;20021;-80
2023/09/12 09:05:48;;;;;;;46.58;25.15;;;;;;;27.99;100.00;101308.00;5187604;28;20025;-81
2023/09/12 09:08:21;;;;;;;47.38;25.42;;;;;;;27.15;100.00;101312.53;5197580;28;20052;-82
2023/09/12 09:10:57;;;;;;;51.45;25.63;;;;;;;26.49;100.00;101309.22;5199847;28;20029;-81
2023/09/12 09:13:28;;;;;;;51.53;25.50;;;;;;;26.17;100.00;101303.66;5201925;28;20092;-80
2023/09/12 09:16:19;;;;;;;49.35;25.08;;;;;;;26.17;100.00;101307.25;5200417;28;20108;-81
2023/09/12 09:18:57;;;;;;;50.53;26.00;;;;;;;26.25;100.00;101306.75;5217254;28;20025;-81
2023/09/12 09:21:31;;;;;;;47.55;24.42;;;;;;;26.58;100.00;101303.00;5191604;28;20046;-81
2023/09/12 09:24:06;;;;;;;45.70;25.00;;;;;;;27.13;100.00;101291.88;5196104;28;20029;-80
2023/09/12 09:26:46;;;;;;;40.78;21.75;;;;;;;27.95;100.00;101288.41;5198013;28;20570;-81
2023/09/12 09:29:20;;;;;;;44.75;25.23;;;;;;;28.32;100.00;101290.97;5197590;28;20107;-80
2023/09/12 09:31:51;;;;;;;39.45;22.35;;;;;;;28.45;100.00;101286.84;5192635;28;20380;-80
2023/09/12 09:34:23;;;;;;;39.90;21.58;;;;;;;28.02;100.00;101286.22;5192936;28;20022;-79
2023/09/12 09:36:56;;;;;;;43.70;22.25;;;;;;;27.40;100.00;101295.31;5197156;28;20033;-81
2023/09/12 09:39:28;;;;;;;37.05;20.40;;;;;;;27.24;100.00;101301.84;5194531;28;20086;-80
2023/09/12 09:41:59;;;;;;;42.40;21.08;;;;;;;27.28;100.00;101298.28;5199187;28;20018;-80
2023/09/12 09:44:31;;;;;;;38.67;21.25;;;;;;;27.07;100.00;101299.25;5195255;28;20480;-80
2023/09/12 09:47:02;;;;;;;39.00;21.38;;;;;;;26.66;100.00;101295.34;5195210;28;20079;-80
2023/09/12 09:49:34;;;;;;;40.55;18.50;;;;;;;26.55;100.00;101300.75;5197413;28;20022;-80
2023/09/12 09:52:05;;;;;;;30.40;16.45;;;;;;;26.94;100.00;101300.50;5199655;28;20025;-80
2023/09/12 09:54:43;;;;;;;28.85;15.90;;;;;;;27.30;100.00;101303.53;5196760;28;20029;-79
2023/09/12 09:57:13;;;;;;;35.30;17.50;;;;;;;27.72;100.00;101303.50;5199508;28;20060;-81
2023/09/12 09:59:51;;;;;;;34.63;17.92;;;;;;;27.59;100.00;101306.72;5196704;28;20114;-80
2023/09/12 10:02:25;;;;;;;32.22;17.23;;;;;;;27.42;100.00;101317.94;5194568;28;20029;-79
2023/09/12 10:04:57;;;;;;;30.38;16.13;;;;;;;27.35;100.00;101309.88;5198079;28;20462;-79
2023/09/12 10:07:28;;;;;;;30.88;16.85;;;;;;;27.47;100.00;101303.34;5197194;28;20383;-81
2023/09/12 10:10:03;;;;;;;30.25;16.50;;;;;;;27.68;100.00;101305.09;5195404;28;20130;-80
2023/09/12 10:12:37;;;;;;;33.13;16.75;;;;;;;27.67;100.00;101297.09;5187873;28;20526;-80
2023/09/12 10:15:09;;;;;;;28.90;15.03;;;;;;;27.61;100.00;101294.34;5199366;28;20022;-80
2023/09/12 10:17:42;;;;;;;31.33;16.20;;;;;;;27.33;100.00;101292.81;5180054;28;20642;-80
2023/09/12 10:20:19;;;;;;;29.35;16.23;;;;;;;26.96;100.00;101291.97;5199337;28;20025;-80
2023/09/12 10:23:11;;;;;;;34.60;16.30;;;;;;;27.00;100.00;101288.44;5194918;28;20113;-80
2023/09/12 10:25:43;;;;;;;28.35;15.25;;;;;;;27.36;100.00;101289.53;5211935;28;20034;-79
2023/09/12 10:28:14;;;;;;;25.40;13.02;;;;;;;27.78;100.00;101296.91;5184744;28;20029;-79
2023/09/12 10:30:46;;;;;;;25.85;12.45;;;;;;;28.19;100.00;101296.19;5194024;28;20884;-79
2023/09/12 10:33:17;;;;;;;26.50;14.63;;;;;;;28.16;100.00;101292.03;5196002;28;20052;-80
2023/09/12 10:35:50;;;;;;;24.15;13.27;;;;;;;28.34;100.00;101297.06;5192056;28;20029;-80
2023/09/12 10:38:23;;;;;;;28.27;16.27;;;;;;;28.26;100.00;101293.97;5194753;28;20026;-79
2023/09/12 10:40:55;;;;;;;27.70;15.25;;;;;;;28.32;100.00;101295.66;5198945;28;20025;-79
2023/09/12 10:43:28;;;;;;;22.42;11.98;;;;;;;28.41;100.00;101298.72;5217513;28;20024;-80
2023/09/12 10:46:02;;;;;;;23.42;12.88;;;;;;;28.48;100.00;101299.28;5199577;28;20036;-80
2023/09/12 10:48:35;;;;;;;19.90;11.15;;;;;;;28.53;100.00;101293.78;5199559;28;20021;-78
2023/09/12 10:51:07;;;;;;;21.15;11.82;;;;;;;28.42;100.00;101290.19;5187649;28;20029;-80
2023/09/12 10:53:38;;;;;;;19.20;10.85;;;;;;;28.06;100.00;101287.34;5185425;28;20037;-80
2023/09/12 10:56:14;;;;;;;18.98;9.23;;;;;;;27.99;100.00;101284.00;5202443;28;20029;-80
2023/09/12 10:59:06;;;;;;;18.05;9.02;;;;;;;28.17;100.00;101285.44;5201437;28;20041;-79
2023/09/12 11:01:38;;;;;;;18.98;11.00;;;;;;;28.46;100.00;101288.50;5198415;28;20554;-79
2023/09/12 11:04:18;;;;;;;17.00;9.93;;;;;;;28.54;100.00;101287.97;5204131;28;20033;-80
2023/09/12 11:06:50;;;;;;;20.95;10.50;;;;;;;28.46;100.00;101288.50;5200028;28;20052;-80
2023/09/12 11:09:22;;;;;;;16.95;10.43;;;;;;;28.70;100.00;101287.97;5200071;28;20021;-80
2023/09/12 11:11:58;;;;;;;16.50;9.77;;;;;;;28.73;100.00;101279.13;5202837;28;20022;-80
2023/09/12 11:14:30;;;;;;;15.77;8.77;;;;;;;28.49;100.00;101287.13;5200884;28;20028;-80
2023/09/12 11:17:21;;;;;;;20.00;11.40;;;;;;;28.39;100.00;101285.19;5203203;28;20025;-80
2023/09/12 11:19:53;;;;;;;18.65;11.32;;;;;;;28.22;100.00;101284.59;5192902;28;20437;-80
2023/09/12 11:22:26;;;;;;;20.08;10.82;;;;;;;27.94;100.00;101281.22;5194371;28;20022;-80